»·PEaware :: N4436E KNEW-KMLU

N4436E :: KNEW-KMLU

FLIGHT INFORMATION

Flight Status: Arrived
Operator: Privately registered:
United States
More flights under this callsign
Pilot: Friedhelm S. (2894)
Aircraft: CESSNA 172 SKYHAWK
(C172)
More flights by this aircraft type
Origin: KNEW Lakefront
United States
Destination: KMLU Monroe Regl
United States
More flights between these airports :: More routes between these airports
Route: HMU HEZ
File this flight plan on PilotEdge
Remarks:
Altitude:
(Current/Filed)
4,500ft
Speed:
(Current/Filed)
100kts
Departed: 10-Jan-21 10:45 AM
Arrived: 10-Jan-21 12:29 PM
Distance/Time
Traveled:
180nm/1:44
Distance/Time
To Go:
Arrived

Flight Plot

Page will automatically refresh every two minutes.

Flight plan parsing failed; only flown route is shown


Map Options




Map Legend


Flown Route
Filed Route
Departure Airport
Arrival Airport
Navaid (VOR, NDB)
Fix

Horizontal Profiles

Position Reports

Time Latitude Longitude Heading Altitude Ground
Speed
10-Jan-21 10:31 30.042212 -90.024334 314 4ft 0kts
10-Jan-21 10:32 30.042212 -90.024334 314 4ft 0kts
10-Jan-21 10:33 30.042212 -90.024334 314 4ft 0kts
10-Jan-21 10:34 30.042212 -90.024334 314 4ft 0kts
10-Jan-21 10:35 30.042212 -90.024334 314 4ft 0kts
10-Jan-21 10:36 30.042212 -90.024334 314 4ft 0kts
10-Jan-21 10:37 30.042212 -90.024334 314 4ft 0kts
10-Jan-21 10:38 30.042213 -90.024334 314 4ft 0kts
10-Jan-21 10:39 30.042213 -90.024334 314 4ft 0kts
10-Jan-21 10:40 30.042213 -90.024334 314 4ft 0kts
10-Jan-21 10:41 30.042213 -90.024334 314 4ft 0kts
10-Jan-21 10:42 30.040858 -90.024591 232 4ft 9kts
10-Jan-21 10:43 30.040085 -90.026987 268 4ft 0kts
10-Jan-21 10:44 30.047848 -90.027513 356 161ft 74kts
10-Jan-21 10:45 30.066431 -90.037867 305 1117ft 84kts
10-Jan-21 10:46 30.079790 -90.061520 333 1996ft 89kts
10-Jan-21 10:47 30.100647 -90.078028 322 2808ft 96kts
10-Jan-21 10:48 30.122520 -90.096153 322 3607ft 97kts
10-Jan-21 10:49 30.144546 -90.114185 323 4371ft 97kts
10-Jan-21 10:50 30.169079 -90.133758 325 4436ft 109kts
10-Jan-21 10:51 30.195006 -90.154423 325 4445ft 116kts
10-Jan-21 10:52 30.221308 -90.175516 324 4445ft 113kts
10-Jan-21 10:53 30.245114 -90.194834 324 4430ft 94kts
10-Jan-21 10:54 30.266259 -90.212192 323 4433ft 94kts
10-Jan-21 10:55 30.288909 -90.230696 324 4438ft 105kts
10-Jan-21 10:56 30.314108 -90.251072 324 4450ft 112kts
10-Jan-21 10:57 30.339562 -90.271658 324 4449ft 111kts
10-Jan-21 10:58 30.364739 -90.292127 324 4445ft 109kts
10-Jan-21 10:59 30.388936 -90.311871 324 4436ft 102kts
10-Jan-21 11:00 30.411041 -90.330008 323 4435ft 96kts
10-Jan-21 11:01 30.433718 -90.348605 324 4437ft 104kts
10-Jan-21 11:02 30.458135 -90.368476 324 4442ft 110kts
10-Jan-21 11:03 30.483881 -90.389387 324 4450ft 115kts
10-Jan-21 11:04 30.510150 -90.410734 324 4445ft 111kts
10-Jan-21 11:05 30.533016 -90.430415 323 4432ft 92kts
10-Jan-21 11:06 30.554278 -90.447867 323 4435ft 96kts
10-Jan-21 11:07 30.577379 -90.465678 329 4436ft 103kts
10-Jan-21 11:08 30.602715 -90.484307 324 4443ft 112kts
10-Jan-21 11:09 30.628706 -90.505860 324 4449ft 116kts
10-Jan-21 11:10 30.654580 -90.527428 324 4437ft 109kts
10-Jan-21 11:11 30.677657 -90.546741 324 4428ft 97kts
10-Jan-21 11:12 30.699034 -90.564691 324 4427ft 95kts
10-Jan-21 11:13 30.721517 -90.583593 324 4431ft 105kts
10-Jan-21 11:14 30.746580 -90.604699 324 4442ft 116kts
10-Jan-21 11:15 30.773202 -90.627025 329 4442ft 119kts
10-Jan-21 11:16 30.800748 -90.647709 324 4443ft 118kts
10-Jan-21 11:17 30.827240 -90.670202 324 4444ft 117kts
10-Jan-21 11:18 30.853724 -90.691870 325 4441ft 115kts
10-Jan-21 11:19 30.879553 -90.712636 325 4435ft 110kts
10-Jan-21 11:20 30.903765 -90.732016 325 4428ft 103kts
10-Jan-21 11:21 30.927222 -90.750739 325 4427ft 101kts
10-Jan-21 11:22 30.950236 -90.769032 325 4426ft 98kts
10-Jan-21 11:23 30.972589 -90.786772 325 4425ft 96kts
10-Jan-21 11:24 30.995263 -90.804748 325 4427ft 100kts
10-Jan-21 11:25 31.019124 -90.823602 325 4429ft 106kts
10-Jan-21 11:26 31.044421 -90.843503 326 4436ft 113kts
10-Jan-21 11:27 31.070940 -90.864322 326 4445ft 115kts
10-Jan-21 11:28 31.097688 -90.885415 325 4452ft 115kts
10-Jan-21 11:29 31.124454 -90.906504 325 4464ft 116kts
10-Jan-21 11:30 31.151210 -90.927641 325 4467ft 116kts
10-Jan-21 11:31 31.177793 -90.948696 325 4471ft 114kts
10-Jan-21 11:32 31.202096 -90.968069 325 4455ft 96kts
10-Jan-21 11:33 31.223603 -90.985392 324 4456ft 95kts
10-Jan-21 11:34 31.247017 -91.004117 325 4470ft 109kts
10-Jan-21 11:35 31.273331 -91.024923 325 4483ft 116kts
10-Jan-21 11:36 31.299848 -91.045887 325 4483ft 114kts
10-Jan-21 11:37 31.326160 -91.066793 325 4484ft 114kts
10-Jan-21 11:38 31.351999 -91.087389 325 4476ft 107kts
10-Jan-21 11:39 31.374813 -91.105741 324 4465ft 95kts
10-Jan-21 11:40 31.396127 -91.122961 324 4468ft 97kts
10-Jan-21 11:41 31.421337 -91.143099 325 4493ft 116kts
10-Jan-21 11:42 31.448659 -91.164788 325 4503ft 120kts
10-Jan-21 11:43 31.476451 -91.186931 325 4505ft 120kts
10-Jan-21 11:45 31.503644 -91.208627 325 4499ft 116kts
10-Jan-21 11:46 31.530267 -91.229932 325 4496ft 115kts
10-Jan-21 11:47 31.556581 -91.251024 325 4495ft 114kts
10-Jan-21 11:48 31.582826 -91.272082 325 4495ft 114kts
10-Jan-21 11:49 31.609074 -91.293159 325 4490ft 114kts
10-Jan-21 11:50 31.635219 -91.314524 324 4493ft 114kts
10-Jan-21 11:51 31.661190 -91.335983 324 4493ft 114kts
10-Jan-21 11:52 31.687247 -91.357515 324 4472ft 116kts
10-Jan-21 11:53 31.713405 -91.379303 324 4469ft 114kts
10-Jan-21 11:54 31.739272 -91.401091 324 4472ft 114kts
10-Jan-21 11:55 31.765122 -91.422950 325 4476ft 114kts
10-Jan-21 11:56 31.791320 -91.444460 326 4482ft 115kts
10-Jan-21 11:57 31.817634 -91.465886 326 4486ft 115kts
10-Jan-21 11:58 31.844171 -91.487411 327 4492ft 116kts
10-Jan-21 11:58 31.866337 -91.505368 327 4492ft 116kts
10-Jan-21 11:59 31.893060 -91.527017 327 4495ft 116kts
10-Jan-21 12:00 31.919712 -91.548611 327 4494ft 116kts
10-Jan-21 12:02 31.950408 -91.573503 327 4491ft 113kts
10-Jan-21 12:03 31.975953 -91.594269 327 4486ft 109kts
10-Jan-21 12:03 31.996240 -91.610821 326 4499ft 101kts
10-Jan-21 12:04 32.018139 -91.628777 326 4497ft 90kts
10-Jan-21 12:05 32.039477 -91.646287 326 4501ft 99kts
10-Jan-21 12:06 32.064053 -91.666505 326 4519ft 115kts
10-Jan-21 12:07 32.090668 -91.688198 326 4522ft 116kts
10-Jan-21 12:08 32.117106 -91.709664 326 4519ft 115kts
10-Jan-21 12:09 32.143625 -91.731196 326 4509ft 114kts
10-Jan-21 12:10 32.169297 -91.752146 326 4505ft 110kts
10-Jan-21 12:11 32.193474 -91.772174 326 4500ft 97kts
10-Jan-21 12:12 32.215042 -91.789727 327 4089ft 95kts
10-Jan-21 12:13 32.236835 -91.807451 327 3629ft 94kts
10-Jan-21 12:14 32.258452 -91.825059 327 3165ft 94kts
10-Jan-21 12:15 32.282061 -91.844377 327 3111ft 115kts
10-Jan-21 12:16 32.309407 -91.866600 327 3120ft 122kts
10-Jan-21 12:17 32.337073 -91.889136 327 3115ft 116kts
10-Jan-21 12:18 32.362179 -91.909714 327 3098ft 101kts
10-Jan-21 12:19 32.383433 -91.927185 327 3093ft 87kts
10-Jan-21 12:20 32.396919 -91.953990 285 2894ft 98kts
10-Jan-21 12:21 32.405659 -91.984290 296 2700ft 96kts
10-Jan-21 12:22 32.418338 -92.012461 298 2303ft 97kts
10-Jan-21 12:23 32.434260 -92.034756 333 1733ft 86kts
10-Jan-21 12:24 32.454648 -92.045023 334 1326ft 79kts
10-Jan-21 12:25 32.472121 -92.059705 326 879ft 71kts
10-Jan-21 12:26 32.489442 -92.060559 27 507ft 58kts
10-Jan-21 12:27 32.501992 -92.047883 47 164ft 60kts
10-Jan-21 12:28 32.507102 -92.044312 345 73ft 12kts
10-Jan-21 12:29 32.508228 -92.044366 45 74ft 0kts
10-Jan-21 12:30 32.508228 -92.044366 45 74ft 0kts
10-Jan-21 12:31 32.508228 -92.044366 45 74ft 0kts
10-Jan-21 12:32 32.508228 -92.044366 45 74ft 0kts
10-Jan-21 12:33 32.508228 -92.044366 45 74ft 0kts
10-Jan-21 12:34 32.508228 -92.044366 45 74ft 0kts
10-Jan-21 12:35 32.508228 -92.044366 45 74ft 0kts
10-Jan-21 12:36 32.508228 -92.044366 45 74ft 0kts
10-Jan-21 12:37 32.508228 -92.044366 45 74ft 0kts
10-Jan-21 12:38 32.508228 -92.044366 45 74ft 0kts
10-Jan-21 12:39 32.508228 -92.044366 45 74ft 0kts
10-Jan-21 12:40 32.508228 -92.044366 45 74ft 0kts
10-Jan-21 12:41 32.508228 -92.044366 45 74ft 0kts
10-Jan-21 12:42 32.508228 -92.044366 45 74ft 0kts

Navigation Log

Ident Type
Flight plan parsing failed, navigation log unavailable